Map

Track Data

SID SEASON NUMBER BASIN SUBBASIN NAME ISO_TIME NATURE LAT LON WMO_WIND WMO_PRES WMO_AGENCY TRACK_TYPE DIST2LAND LANDFALL IFLAG USA_AGENCY USA_ATCF_ID USA_LAT USA_LON USA_RECORD USA_STATUS USA_WIND USA_PRES USA_SSHS USA_R34_NE USA_R34_SE USA_R34_SW USA_R34_NW USA_R50_NE USA_R50_SE USA_R50_SW USA_R50_NW USA_R64_NE USA_R64_SE USA_R64_SW USA_R64_NW USA_POCI USA_ROCI USA_RMW USA_EYE TOKYO_LAT TOKYO_LON TOKYO_GRADE TOKYO_WIND TOKYO_PRES TOKYO_R50_DIR TOKYO_R50_LONG TOKYO_R50_SHORT TOKYO_R30_DIR TOKYO_R30_LONG TOKYO_R30_SHORT TOKYO_LAND CMA_LAT CMA_LON CMA_CAT CMA_WIND CMA_PRES HKO_LAT HKO_LON HKO_CAT HKO_WIND HKO_PRES NEWDELHI_LAT NEWDELHI_LON NEWDELHI_GRADE NEWDELHI_WIND NEWDELHI_PRES NEWDELHI_CI NEWDELHI_DP NEWDELHI_POCI REUNION_LAT REUNION_LON REUNION_TYPE REUNION_WIND REUNION_PRES REUNION_TNUM REUNION_CI REUNION_RMW REUNION_R34_NE REUNION_R34_SE REUNION_R34_SW REUNION_R34_NW REUNION_R50_NE REUNION_R50_SE REUNION_R50_SW REUNION_R50_NW REUNION_R64_NE REUNION_R64_SE REUNION_R64_SW REUNION_R64_NW BOM_LAT BOM_LON BOM_TYPE BOM_WIND BOM_PRES BOM_TNUM BOM_CI BOM_RMW BOM_R34_NE BOM_R34_SE BOM_R34_SW BOM_R34_NW BOM_R50_NE BOM_R50_SE BOM_R50_SW BOM_R50_NW BOM_R64_NE BOM_R64_SE BOM_R64_SW BOM_R64_NW BOM_ROCI BOM_POCI BOM_EYE BOM_POS_METHOD BOM_PRES_METHOD NADI_LAT NADI_LON NADI_CAT NADI_WIND NADI_PRES WELLINGTON_LAT WELLINGTON_LON WELLINGTON_WIND WELLINGTON_PRES DS824_LAT DS824_LON DS824_STAGE DS824_WIND DS824_PRES TD9636_LAT TD9636_LON TD9636_STAGE TD9636_WIND TD9636_PRES TD9635_LAT TD9635_LON TD9635_WIND TD9635_PRES TD9635_ROCI NEUMANN_LAT NEUMANN_LON NEUMANN_CLASS NEUMANN_WIND NEUMANN_PRES MLC_LAT MLC_LON MLC_CLASS MLC_WIND MLC_PRES USA_GUST BOM_GUST BOM_GUST_PER REUNION_GUST REUNION_GUST_PER USA_SEAHGT USA_SEARAD_NE USA_SEARAD_SE USA_SEARAD_SW USA_SEARAD_NW STORM_SPEED STORM_DIR
1967212N19090 1967 62 NI BB NOT_NAMED 1967-07-30 18:00:00 TS 18.8000 90.3000 main 302 296 O________O____ jtwc_io IO051967 18.8000 90.3000 -1 18.8000 90.3000 TC 2 0
1967212N19090 1967 62 NI BB NOT_NAMED 1967-07-30 21:00:00 TS 18.9050 90.2776 main 296 290 P________P____ IO051967 18.9050 90.2776 -1 18.9050 90.2776 TC 2 333
1967212N19090 1967 62 NI BB NOT_NAMED 1967-07-31 00:00:00 TS 19.0000 90.2000 main 298 294 O________O____ jtwc_io IO051967 19.0000 90.2000 -1 19.0000 90.2000 TC 25 3 306
1967212N19090 1967 62 NI BB NOT_NAMED 1967-07-31 03:00:00 TS 19.0865 90.0154 main 294 275 P________PO___ IO051967 19.0848 90.0173 -1 19.0848 90.0173 TC 25 19.1000 90.0000 1 6 293
1967212N19090 1967 62 NI BB NOT_NAMED 1967-07-31 06:00:00 TS 19.2141 89.6621 main 275 246 O________OP___ jtwc_io IO051967 19.2000 89.7000 -1 19.2000 89.7000 TC 25 19.2703 89.5105 1 9 292
1967212N19090 1967 62 NI BB NOT_NAMED 1967-07-31 09:00:00 TS 19.4090 89.1556 main 246 215 P________PP___ IO051967 19.4004 89.1928 -1 19.4004 89.1928 TC 25 19.4318 89.0563 1 10 292
1967212N19090 1967 62 NI BB NOT_NAMED 1967-07-31 12:00:00 TS 19.5924 88.6913 main 215 183 O________OP___ jtwc_io IO051967 19.6000 88.7000 -1 19.6000 88.7000 TC 25 19.5773 88.6739 1 8 294
1967212N19090 1967 62 NI BB NOT_NAMED 1967-07-31 15:00:00 TS 19.7149 88.4216 main 183 168 P________PO___ IO051967 19.7223 88.4323 -1 19.7223 88.4323 TC 25 19.7000 88.4000 1 4 298
1967212N19090 1967 62 NI BB NOT_NAMED 1967-07-31 18:00:00 TS 19.7986 88.2846 main 168 153 O________OP___ jtwc_io IO051967 19.8000 88.3000 -1 19.8000 88.3000 TC 25 19.7957 88.2538 1 2 309
1967212N19090 1967 62 NI BB NOT_NAMED 1967-07-31 21:00:00 TS 19.8571 88.2330 main 153 153 P________PP___ IO051967 19.8499 88.2574 -1 19.8499 88.2574 TC 25 19.8714 88.1843 1 2 318
1967212N19090 1967 62 NI BB NOT_NAMED 1967-08-01 00:00:00 TS 19.9121 88.1742 main 153 130 O________OP___ jtwc_io IO051967 19.9000 88.2000 -1 19.9000 88.2000 TC 25 19.9364 88.1226 1 3 303
1967212N19090 1967 62 NI BB NOT_NAMED 1967-08-01 03:00:00 TS 20.0000 88.0017 main 130 99 P________PO___ IO051967 19.9999 88.0025 -1 19.9999 88.0025 TC 25 20.0000 88.0000 1 5 293
1967212N19090 1967 62 NI BB NOT_NAMED 1967-08-01 06:00:00 TS 20.0945 87.7047 main 99 61 O________OP___ jtwc_io IO051967 20.1000 87.7000 -1 20.1000 87.7000 TC 25 20.0835 87.7140 1 7 284
1967212N19090 1967 62 NI BB NOT_NAMED 1967-08-01 09:00:00 TS 20.1603 87.3251 main 61 23 P________PP___ IO051967 20.1576 87.3075 -1 20.1576 87.3075 TC 25 20.1656 87.3603 1 7 279
1967212N19090 1967 62 NI BB NOT_NAMED 1967-08-01 12:00:00 TS 20.2133 86.9255 main 23 0 O________OP___ jtwc_io IO051967 20.2000 86.9000 -1 20.2000 86.9000 TC 25 20.2397 86.9764 1 7 279
1967212N19090 1967 62 NI BB NOT_NAMED 1967-08-01 15:00:00 TS 20.2666 86.5900 main 0 0 P________PO___ IO051967 20.2499 86.5850 -1 20.2499 86.5850 TC 25 20.3000 86.6000 1 6 280
1967212N19090 1967 62 NI BB NOT_NAMED 1967-08-01 18:00:00 TS 20.3101 86.3086 main 0 0 O________OP___ jtwc_io IO051967 20.3000 86.3000 -1 20.3000 86.3000 TC 25 20.3304 86.3258 1 5 279
1967212N19090 1967 62 NI BB NOT_NAMED 1967-08-01 21:00:00 TS 20.3495 86.0248 main 0 0 P________PP___ IO051967 20.3499 86.0075 -1 20.3499 86.0075 TC 25 20.3486 86.0593 1 6 278
1967212N19090 1967 62 NI BB NOT_NAMED 1967-08-02 00:00:00 TS 20.3892 85.7211 main 0 0 O________OP___ jtwc_io IO051967 20.4000 85.7000 -1 20.4000 85.7000 TC 25 20.3677 85.7633 1 6 278
1967212N19090 1967 62 NI BB NOT_NAMED 1967-08-02 03:00:00 TS 20.4332 85.3916 main 0 0 P________PO___ IO051967 20.4498 85.3874 -1 20.4498 85.3874 TC 25 20.4000 85.4000 1 7 278
1967212N19090 1967 62 NI BB NOT_NAMED 1967-08-02 06:00:00 TS 20.4819 84.9770 main 0 0 O________OP___ jtwc_io IO051967 20.5000 85.0000 -1 20.5000 85.0000 TC 25 20.4547 84.9425 1 9 277
1967212N19090 1967 62 NI BB NOT_NAMED 1967-08-02 09:00:00 TS 20.5407 84.4526 main 0 0 P________PP___ IO051967 20.5505 84.4876 -1 20.5505 84.4876 TC 25 20.5276 84.4060 1 11 277
1967212N19090 1967 62 NI BB NOT_NAMED 1967-08-02 12:00:00 TS 20.6058 83.8582 main 0 0 O________OP___ jtwc_io IO051967 20.6000 83.9000 -1 20.6000 83.9000 TC 25 20.6116 83.8164 1 12 278
1967212N19090 1967 62 NI BB NOT_NAMED 1967-08-02 15:00:00 NR 20.7000 83.2000 main 0 __________O___ IO051967 -1 TC 20.7000 83.2000 1 12 279

About IBTrACS Database

This database is a web-friendly format of International Best Track Archive for Climate Stewardship (IBTrACS), a global best track data archive curated by NOAA dating back to 1842.

Updated: 2021-12-01